Mari Lampton — WDE3648 — position and weather

sailwx.info

Track history (hours):
 
Tides and Currents Weather Stations Pressure Air Temp Water Temp Dewpoint Dewpoint Depression Visibility Wind Speed Wind Dir Waves Ship Positions

Mari Lampton

Owner: MAgnolia Marine Transport Company, Vicksburg, MS. More information available from US FCC via Universal Licensing System and Coast Guard Vessel Documentation Center.

Last reported at 2017-May-11 22:21 UTC. Time now 2017-May-30 03:35 UTC.
Position N 32°35' W 091°07'.
Warning: this ship's position is 18 days out of date.

Length 34 m.

Type: Towing. MMSI: 367342210.

Date/timePositionNaut miles runAvg speedWind from/ knotsBaromVisibWave heightAir tempDewpointWater temp
2017-May-11 22:21N 32°35' W 091°07'6 4.0
2017-May-11 20:47N 32°29' W 091°06'1 3.8
2017-May-11 20:31N 32°28' W 091°06'2 4.5
2017-May-11 20:00N 32°26' W 091°03'2 3.9
2017-May-11 19:31N 32°26' W 091°01'2 4.3
2017-May-11 19:01N 32°24' W 090°60'2 4.3
2017-May-11 18:31N 32°22' W 091°00'2 3.7
2017-May-11 18:01N 32°21' W 090°58'3 5.6
2017-May-11 17:31N 32°21' W 090°55'1 2.7
2017-May-11 17:01N 32°21' W 090°54'0 0.1
2017-May-11 16:31N 32°21' W 090°54'0 0.0
2017-May-11 16:00N 32°21' W 090°54'0 0.0
2017-May-11 15:31N 32°21' W 090°54'0 0.0
2017-May-11 15:00N 32°21' W 090°54'1 2.1
2017-May-11 14:31N 32°21' W 090°53'1 1.0
2017-May-11 13:31N 32°22' W 090°53'0 0.4
2017-May-11 13:01N 32°22' W 090°53'0 0.2
2017-May-11 12:31N 32°22' W 090°53'0 0.0
2017-May-11 12:00N 32°22' W 090°53'0 0.2
2017-May-11 11:30N 32°22' W 090°53'1 1.2
2017-May-11 11:01N 32°23' W 090°53'1 2.5
2017-May-11 10:30N 32°23' W 090°54'0 0.0
2017-May-11 10:00N 32°23' W 090°54'0 0.0
2017-May-11 09:31N 32°23' W 090°54'0 0.0
2017-May-11 09:00N 32°23' W 090°54'0 0.0
2017-May-11 08:31N 32°23' W 090°54'0 0.0
2017-May-11 08:00N 32°23' W 090°54'0 0.0
2017-May-11 07:31N 32°23' W 090°54'0 0.0
2017-May-11 07:01N 32°23' W 090°54'0 0.0
2017-May-11 06:30N 32°23' W 090°54'0 0.1
2017-May-11 06:01N 32°23' W 090°54'0 0.0
2017-May-11 05:30N 32°23' W 090°54'0 0.0
2017-May-11 05:01N 32°23' W 090°54'0 0.0
2017-May-11 04:31N 32°23' W 090°54'0 0.0
2017-May-11 04:01N 32°23' W 090°54'0 0.0
2017-May-11 03:30N 32°23' W 090°54'0 0.0
2017-May-11 03:01N 32°23' W 090°54'0 0.1
2017-May-11 02:31N 32°23' W 090°54'0 0.0
2017-May-11 02:00N 32°23' W 090°54'0 0.0
2017-May-11 01:31N 32°23' W 090°54'0 0.0
2017-May-11 01:01N 32°23' W 090°54'0 0.0
2017-May-11 00:31N 32°23' W 090°54'0 0.0
2017-May-11 00:00N 32°23' W 090°54'0 0.0
2017-May-10 23:31N 32°23' W 090°54'0 0.0
2017-May-10 23:01N 32°23' W 090°54'0 0.0
2017-May-10 22:30N 32°23' W 090°54'0 0.1
2017-May-10 22:00N 32°23' W 090°54'1 2.1
2017-May-10 21:31N 32°23' W 090°53'0 0.1
2017-May-10 21:01N 32°23' W 090°53'0 0.1
2017-May-10 20:31N 32°23' W 090°53'0 0.1
2017-May-10 20:00N 32°23' W 090°53'0 0.0
2017-May-10 19:31N 32°23' W 090°53'0 0.0
2017-May-10 19:00N 32°23' W 090°53'0 0.0
2017-May-10 18:30N 32°23' W 090°53'0 0.0
2017-May-10 18:00N 32°23' W 090°53'0 0.0
2017-May-10 17:30N 32°23' W 090°53'0 0.0
2017-May-10 17:01N 32°23' W 090°53'0 0.0
2017-May-10 16:31N 32°23' W 090°53'0 0.0
2017-May-10 16:01N 32°23' W 090°53'0 0.0
2017-May-10 15:31N 32°23' W 090°53'0 0.0
2017-May-10 15:01N 32°23' W 090°53'0 0.0
2017-May-10 14:00N 32°23' W 090°53'1 2.1
2017-May-10 13:31N 32°23' W 090°54'0 0.2
2017-May-10 13:01N 32°23' W 090°54'1 1.1
2017-May-10 12:31N 32°23' W 090°53'1 1.7
2017-May-10 12:00N 32°23' W 090°52'1 2.7
2017-May-10 11:30N 32°21' W 090°53'2 3.3
2017-May-10 11:00N 32°20' W 090°54'2 4.3
2017-May-10 10:30N 32°18' W 090°55'2 3.8
2017-May-10 10:01N 32°17' W 090°57'2 4.0
2017-May-10 09:31N 32°15' W 090°58'3 4.9
2017-May-10 08:59N 32°13' W 090°59'3 4.4
2017-May-10 08:17N 32°10' W 090°60'1 4.5
2017-May-10 07:59N 32°08' W 091°00'5 4.4
2017-May-10 06:51N 32°08' W 091°06'  
Track history (hours):
 
Tides and Currents Weather Stations Pressure Air Temp Water Temp Dewpoint Dewpoint Depression Visibility Wind Speed Wind Dir Waves Ship Positions

Mari Lampton

Owner: MAgnolia Marine Transport Company, Vicksburg, MS. More information available from US FCC via Universal Licensing System and Coast Guard Vessel Documentation Center.

Last reported at 2017-May-11 22:21 UTC. Time now 2017-May-30 03:35 UTC.
Position N 32°35' W 091°07'.
Warning: this ship's position is 18 days out of date.

Length 34 m.

Type: Towing. MMSI: 367342210.

Date/timePositionNaut miles runAvg speedWind from/ knotsBaromVisibWave heightAir tempDewpointWater temp
2017-May-11 22:21N 32°35' W 091°07'6 4.0
2017-May-11 20:47N 32°29' W 091°06'1 3.8
2017-May-11 20:31N 32°28' W 091°06'2 4.5
2017-May-11 20:00N 32°26' W 091°03'2 3.9
2017-May-11 19:31N 32°26' W 091°01'2 4.3
2017-May-11 19:01N 32°24' W 090°60'2 4.3
2017-May-11 18:31N 32°22' W 091°00'2 3.7
2017-May-11 18:01N 32°21' W 090°58'3 5.6
2017-May-11 17:31N 32°21' W 090°55'1 2.7
2017-May-11 17:01N 32°21' W 090°54'0 0.1
2017-May-11 16:31N 32°21' W 090°54'0 0.0
2017-May-11 16:00N 32°21' W 090°54'0 0.0
2017-May-11 15:31N 32°21' W 090°54'0 0.0
2017-May-11 15:00N 32°21' W 090°54'1 2.1
2017-May-11 14:31N 32°21' W 090°53'1 1.0
2017-May-11 13:31N 32°22' W 090°53'0 0.4
2017-May-11 13:01N 32°22' W 090°53'0 0.2
2017-May-11 12:31N 32°22' W 090°53'0 0.0
2017-May-11 12:00N 32°22' W 090°53'0 0.2
2017-May-11 11:30N 32°22' W 090°53'1 1.2
2017-May-11 11:01N 32°23' W 090°53'1 2.5
2017-May-11 10:30N 32°23' W 090°54'0 0.0
2017-May-11 10:00N 32°23' W 090°54'0 0.0
2017-May-11 09:31N 32°23' W 090°54'0 0.0
2017-May-11 09:00N 32°23' W 090°54'0 0.0
2017-May-11 08:31N 32°23' W 090°54'0 0.0
2017-May-11 08:00N 32°23' W 090°54'0 0.0
2017-May-11 07:31N 32°23' W 090°54'0 0.0
2017-May-11 07:01N 32°23' W 090°54'0 0.0
2017-May-11 06:30N 32°23' W 090°54'0 0.1
2017-May-11 06:01N 32°23' W 090°54'0 0.0
2017-May-11 05:30N 32°23' W 090°54'0 0.0
2017-May-11 05:01N 32°23' W 090°54'0 0.0
2017-May-11 04:31N 32°23' W 090°54'0 0.0
2017-May-11 04:01N 32°23' W 090°54'0 0.0
2017-May-11 03:30N 32°23' W 090°54'0 0.0
2017-May-11 03:01N 32°23' W 090°54'0 0.1
2017-May-11 02:31N 32°23' W 090°54'0 0.0
2017-May-11 02:00N 32°23' W 090°54'0 0.0
2017-May-11 01:31N 32°23' W 090°54'0 0.0
2017-May-11 01:01N 32°23' W 090°54'0 0.0
2017-May-11 00:31N 32°23' W 090°54'0 0.0
2017-May-11 00:00N 32°23' W 090°54'0 0.0
2017-May-10 23:31N 32°23' W 090°54'0 0.0
2017-May-10 23:01N 32°23' W 090°54'0 0.0
2017-May-10 22:30N 32°23' W 090°54'0 0.1
2017-May-10 22:00N 32°23' W 090°54'1 2.1
2017-May-10 21:31N 32°23' W 090°53'0 0.1
2017-May-10 21:01N 32°23' W 090°53'0 0.1
2017-May-10 20:31N 32°23' W 090°53'0 0.1
2017-May-10 20:00N 32°23' W 090°53'0 0.0
2017-May-10 19:31N 32°23' W 090°53'0 0.0
2017-May-10 19:00N 32°23' W 090°53'0 0.0
2017-May-10 18:30N 32°23' W 090°53'0 0.0
2017-May-10 18:00N 32°23' W 090°53'0 0.0
2017-May-10 17:30N 32°23' W 090°53'0 0.0
2017-May-10 17:01N 32°23' W 090°53'0 0.0
2017-May-10 16:31N 32°23' W 090°53'0 0.0
2017-May-10 16:01N 32°23' W 090°53'0 0.0
2017-May-10 15:31N 32°23' W 090°53'0 0.0
2017-May-10 15:01N 32°23' W 090°53'0 0.0
2017-May-10 14:00N 32°23' W 090°53'1 2.1
2017-May-10 13:31N 32°23' W 090°54'0 0.2
2017-May-10 13:01N 32°23' W 090°54'1 1.1
2017-May-10 12:31N 32°23' W 090°53'1 1.7
2017-May-10 12:00N 32°23' W 090°52'1 2.7
2017-May-10 11:30N 32°21' W 090°53'2 3.3
2017-May-10 11:00N 32°20' W 090°54'2 4.3
2017-May-10 10:30N 32°18' W 090°55'2 3.8
2017-May-10 10:01N 32°17' W 090°57'2 4.0
2017-May-10 09:31N 32°15' W 090°58'3 4.9
2017-May-10 08:59N 32°13' W 090°59'3 4.4
2017-May-10 08:17N 32°10' W 090°60'1 4.5
2017-May-10 07:59N 32°08' W 091°00'5 4.4
2017-May-10 06:51N 32°08' W 091°06'  

Dump ship's entire track history